Time;durP1;ratioP1;P1;durP2;ratioP2;P2;SDS_P1;SDS_P2;PMS_P1;PMS_P2;Temp;Humidity;BMP_temperature;BMP_pressure;BME280_temperature;BME280_humidity;BME280_pressure;Samples;Min_cycle;Max_cycle;Signal;HPM_P1;HPM_P2
2021/06/21 00:01:30;;;;;;;1.48;0.50;;;;;;;17.20;83.43;99378.66;5017986;28;20022;-76
2021/06/21 00:03:57;;;;;;;1.85;0.50;;;;;;;17.19;82.61;99379.84;5026184;28;20371;-76
2021/06/21 00:06:23;;;;;;;2.33;0.50;;;;;;;17.18;83.25;99378.22;5032415;28;20029;-76
2021/06/21 00:08:48;;;;;;;4.88;0.68;;;;;;;17.15;83.33;99376.94;5019485;28;20036;-76
2021/06/21 00:11:14;;;;;;;1.90;0.50;;;;;;;17.16;83.55;99384.19;5040081;28;20033;-76
2021/06/21 00:13:39;;;;;;;2.30;0.55;;;;;;;17.15;83.08;99384.56;5041998;28;20678;-76
2021/06/21 00:16:05;;;;;;;1.27;0.40;;;;;;;17.11;83.63;99375.25;5018632;28;20421;-76
2021/06/21 00:18:30;;;;;;;2.28;0.60;;;;;;;17.06;83.49;99379.16;5044639;28;20037;-77
2021/06/21 00:20:56;;;;;;;3.22;0.50;;;;;;;16.98;83.24;99383.78;5040945;28;20037;-76
2021/06/21 00:23:21;;;;;;;2.90;0.65;;;;;;;16.98;84.09;99383.78;5021996;28;20034;-77
2021/06/21 00:25:47;;;;;;;3.55;0.70;;;;;;;16.99;83.60;99381.78;5025317;28;20044;-76
2021/06/21 00:28:14;;;;;;;2.42;0.60;;;;;;;16.95;83.31;99390.13;5024356;28;20026;-76
2021/06/21 00:30:39;;;;;;;3.58;0.60;;;;;;;16.92;84.62;99379.63;5033680;28;20037;-76
2021/06/21 00:33:05;;;;;;;2.35;0.70;;;;;;;16.93;83.77;99384.03;5000651;28;20029;-76
2021/06/21 00:35:31;;;;;;;4.03;0.95;;;;;;;16.92;83.77;99390.03;5036301;28;20033;-77
2021/06/21 00:37:57;;;;;;;4.30;0.63;;;;;;;16.86;84.83;99386.69;5022305;28;20026;-76
2021/06/21 00:40:23;;;;;;;3.28;0.60;;;;;;;16.82;83.92;99384.97;5047476;28;20033;-77
2021/06/21 00:42:48;;;;;;;4.28;0.93;;;;;;;16.84;84.67;99388.22;5024042;28;20025;-76
2021/06/21 00:45:16;;;;;;;2.47;0.52;;;;;;;16.84;84.16;99388.22;5005688;28;20061;-77
2021/06/21 00:47:41;;;;;;;3.63;0.77;;;;;;;16.86;84.07;99397.09;5035322;28;20029;-77
2021/06/21 00:50:07;;;;;;;6.40;1.08;;;;;;;16.83;84.39;99400.63;5029403;28;20033;-77
2021/06/21 00:52:33;;;;;;;3.13;1.02;;;;;;;16.79;84.36;99402.53;5006489;28;20044;-76
2021/06/21 00:55:01;;;;;;;7.13;0.88;;;;;;;16.79;83.83;99402.53;5023082;28;20034;-76
2021/06/21 00:57:30;;;;;;;3.35;0.80;;;;;;;16.76;83.98;99395.63;5027713;28;20032;-77
2021/06/21 01:00:08;;;;;;;3.35;0.90;;;;;;;16.71;84.75;99399.50;5026764;28;20474;-76
2021/06/21 01:02:34;;;;;;;3.85;0.90;;;;;;;16.73;84.72;99397.16;5036859;28;20034;-76
2021/06/21 01:04:59;;;;;;;4.78;0.90;;;;;;;16.74;84.45;99400.75;4995639;28;20396;-76
2021/06/21 01:07:25;;;;;;;6.07;1.13;;;;;;;16.70;84.45;99403.50;5011565;28;20160;-77
2021/06/21 01:09:51;;;;;;;6.10;1.20;;;;;;;16.69;84.82;99398.25;5035637;28;20033;-77
2021/06/21 01:13:00;;;;;;;4.18;1.02;;;;;;;16.69;84.32;99399.06;5012909;28;20053;-77
2021/06/21 01:15:28;;;;;;;3.58;1.00;;;;;;;16.68;84.42;99399.41;4997612;28;20042;-76
2021/06/21 01:18:08;;;;;;;7.20;0.90;;;;;;;16.68;84.10;99410.63;5022810;28;20036;-77
2021/06/21 01:20:43;;;;;;;6.03;1.30;;;;;;;16.62;85.02;99410.09;5023380;28;20482;-77
2021/06/21 01:23:11;;;;;;;4.55;0.90;;;;;;;16.61;84.67;99408.47;5043601;28;20064;-77
2021/06/21 01:25:46;;;;;;;4.78;1.10;;;;;;;16.63;84.27;99411.72;5035695;28;20034;-77
2021/06/21 01:28:18;;;;;;;4.97;1.33;;;;;;;16.61;85.20;99411.28;5014841;28;20033;-76
2021/06/21 01:31:02;;;;;;;6.28;1.40;;;;;;;16.57;85.06;99410.34;5045898;28;20026;-76
2021/06/21 01:33:28;;;;;;;2.97;0.80;;;;;;;16.59;85.01;99416.41;5030707;28;20030;-77
2021/06/21 01:35:57;;;;;;;5.68;1.10;;;;;;;16.49;84.97;99423.38;5021982;28;20033;-77
2021/06/21 01:38:24;;;;;;;4.82;0.93;;;;;;;16.50;85.46;99418.59;5016743;28;20021;-77
2021/06/21 01:40:52;;;;;;;8.30;1.80;;;;;;;16.51;84.24;99420.22;5028908;28;20477;-76
2021/06/21 01:43:19;;;;;;;4.90;1.10;;;;;;;16.50;84.65;99427.81;4986867;28;20036;-76
2021/06/21 01:45:45;;;;;;;4.30;1.23;;;;;;;16.48;84.43;99426.53;5027687;28;20037;-77
2021/06/21 01:48:11;;;;;;;4.60;1.10;;;;;;;16.47;85.20;99419.31;5028139;28;20044;-76
2021/06/21 01:50:37;;;;;;;4.63;1.20;;;;;;;16.47;84.85;99414.53;5039616;28;20024;-76
2021/06/21 01:53:10;;;;;;;5.05;1.00;;;;;;;16.44;84.79;99414.44;5029513;28;20044;-76
2021/06/21 01:55:37;;;;;;;4.32;1.00;;;;;;;16.41;84.92;99417.94;5038303;28;20064;-76
2021/06/21 01:58:03;;;;;;;2.60;0.80;;;;;;;16.42;84.66;99414.78;4996318;28;20036;-76
2021/06/21 02:00:29;;;;;;;5.03;1.17;;;;;;;16.39;84.81;99411.91;5028331;28;20029;-76
2021/06/21 02:02:55;;;;;;;9.40;1.05;;;;;;;16.36;84.57;99415.41;5046159;28;20037;-76
2021/06/21 02:05:20;;;;;;;11.40;1.35;;;;;;;16.32;84.38;99409.69;5019682;28;20048;-76
2021/06/21 02:07:47;;;;;;;4.65;0.88;;;;;;;16.30;84.07;99407.28;5027574;28;20694;-76
2021/06/21 02:10:13;;;;;;;2.95;0.98;;;;;;;16.34;83.88;99429.78;5026101;28;20029;-76
2021/06/21 02:12:38;;;;;;;6.28;1.00;;;;;;;16.24;84.09;99438.69;5022910;28;20034;-76
2021/06/21 02:15:04;;;;;;;5.38;1.05;;;;;;;16.26;83.95;99436.34;5032189;28;20030;-76
2021/06/21 02:17:30;;;;;;;6.88;1.25;;;;;;;16.21;84.15;99436.59;5043243;28;20440;-76
2021/06/21 02:19:56;;;;;;;5.30;1.10;;;;;;;16.17;83.36;99446.91;5019749;28;20037;-76
2021/06/21 02:22:22;;;;;;;5.57;1.13;;;;;;;16.15;83.13;99441.66;5020150;28;20088;-76
2021/06/21 02:24:48;;;;;;;4.15;1.08;;;;;;;16.13;83.30;99444.03;5035329;28;20029;-76
2021/06/21 02:27:14;;;;;;;5.95;1.13;;;;;;;16.09;83.29;99443.91;5032934;28;20037;-76
2021/06/21 02:29:39;;;;;;;4.63;1.00;;;;;;;16.05;83.24;99453.38;5028374;28;20033;-76
2021/06/21 02:32:05;;;;;;;4.47;0.88;;;;;;;16.01;83.10;99446.84;5025662;28;20389;-76
2021/06/21 02:34:31;;;;;;;3.70;0.93;;;;;;;15.98;83.11;99456.78;5026214;28;20489;-76
2021/06/21 02:36:57;;;;;;;4.50;1.20;;;;;;;15.96;82.97;99458.31;5020838;28;20022;-76
2021/06/21 02:39:22;;;;;;;3.90;1.02;;;;;;;15.94;82.95;99455.06;5026610;28;20040;-76
2021/06/21 02:41:48;;;;;;;4.63;1.25;;;;;;;15.90;83.08;99468.94;5043102;28;20041;-77
2021/06/21 02:44:13;;;;;;;4.05;0.90;;;;;;;15.85;82.79;99464.44;5044848;28;20507;-76
2021/06/21 02:46:39;;;;;;;5.85;1.10;;;;;;;15.82;83.18;99458.69;5045831;28;20063;-76
2021/06/21 02:49:04;;;;;;;4.30;1.10;;;;;;;15.78;83.16;99460.59;5027143;28;20034;-77
2021/06/21 02:51:40;;;;;;;3.95;1.10;;;;;;;15.75;83.10;99453.72;5041428;28;20037;-77
2021/06/21 02:54:16;;;;;;;3.65;1.15;;;;;;;15.73;82.82;99453.25;5026650;28;20057;-77
2021/06/21 02:56:54;;;;;;;4.95;1.20;;;;;;;15.62;82.90;99446.50;5024761;28;20121;-76
2021/06/21 02:59:21;;;;;;;5.05;1.00;;;;;;;15.57;82.91;99439.16;5044316;28;20079;-76
2021/06/21 03:01:49;;;;;;;6.22;1.13;;;;;;;15.50;83.01;99432.53;5022486;28;20547;-76
2021/06/21 03:04:15;;;;;;;7.00;1.48;;;;;;;15.49;82.82;99442.09;5046455;28;20057;-76
2021/06/21 03:06:42;;;;;;;4.70;1.15;;;;;;;15.45;82.64;99443.97;5044437;28;20037;-76
2021/06/21 03:09:07;;;;;;;3.83;1.05;;;;;;;15.36;82.72;99439.31;5021090;28;20037;-76
2021/06/21 03:11:33;;;;;;;2.13;0.95;;;;;;;15.32;82.79;99441.19;5007431;28;20037;-77
2021/06/21 03:13:58;;;;;;;3.80;0.98;;;;;;;15.25;82.83;99452.16;5027993;28;20083;-77
2021/06/21 03:16:26;;;;;;;6.00;1.08;;;;;;;15.23;82.52;99448.06;5018393;28;20083;-77
2021/06/21 03:18:52;;;;;;;3.17;1.02;;;;;;;15.17;82.47;99437.13;5034094;28;20036;-76
2021/06/21 03:21:18;;;;;;;4.85;1.08;;;;;;;15.13;82.82;99446.59;5026309;28;20037;-77
2021/06/21 03:23:43;;;;;;;5.95;1.05;;;;;;;15.14;82.76;99448.19;5020940;28;20033;-77
2021/06/21 03:26:09;;;;;;;5.38;1.23;;;;;;;15.06;82.89;99451.94;5046570;28;20033;-76
2021/06/21 03:28:34;;;;;;;6.38;1.50;;;;;;;15.01;82.84;99454.97;5022426;28;20104;-76
2021/06/21 03:31:04;;;;;;;7.15;1.60;;;;;;;14.98;82.72;99465.66;5026140;28;20033;-77
2021/06/21 03:33:29;;;;;;;6.10;1.40;;;;;;;14.90;83.03;99461.00;5009927;28;20033;-77
2021/06/21 03:35:55;;;;;;;2.55;1.10;;;;;;;14.85;83.12;99452.88;5024838;28;20060;-77
2021/06/21 03:38:24;;;;;;;8.32;1.63;;;;;;;14.81;82.96;99445.53;5022975;28;20477;-77
2021/06/21 03:40:50;;;;;;;3.10;1.00;;;;;;;14.79;83.19;99443.06;5026043;28;20043;-77
2021/06/21 03:43:20;;;;;;;5.10;1.17;;;;;;;14.72;82.95;99434.44;5020786;28;20036;-77
2021/06/21 03:45:47;;;;;;;3.65;1.13;;;;;;;14.69;82.94;99440.75;5031568;28;20053;-75
2021/06/21 03:48:12;;;;;;;5.22;1.38;;;;;;;14.65;82.82;99448.16;5024245;28;20037;-75
2021/06/21 03:50:38;;;;;;;4.78;1.48;;;;;;;14.63;82.78;99442.94;5010865;28;20026;-75
2021/06/21 03:53:04;;;;;;;8.27;1.20;;;;;;;14.58;82.76;99451.56;5030648;28;20072;-75
2021/06/21 03:55:30;;;;;;;3.88;1.08;;;;;;;14.57;82.73;99457.47;5023138;28;20069;-75
2021/06/21 03:57:55;;;;;;;4.40;1.20;;;;;;;14.49;82.74;99465.59;5021988;28;20482;-75
2021/06/21 04:00:23;;;;;;;4.88;1.10;;;;;;;14.47;82.83;99467.91;5047985;28;20033;-75
2021/06/21 04:02:49;;;;;;;3.75;1.20;;;;;;;14.45;82.95;99470.22;5024368;28;20037;-75
2021/06/21 04:05:15;;;;;;;3.90;1.25;;;;;;;14.41;83.01;99482.44;5045146;28;20040;-75
2021/06/21 04:07:40;;;;;;;5.28;1.58;;;;;;;14.39;82.88;99493.94;5034388;28;20033;-75
2021/06/21 04:10:08;;;;;;;3.30;1.52;;;;;;;14.36;83.41;99491.84;5013868;28;20029;-75
2021/06/21 04:12:35;;;;;;;7.65;1.45;;;;;;;14.33;83.50;99492.53;5040549;28;20030;-75
2021/06/21 04:15:00;;;;;;;7.25;1.63;;;;;;;14.35;83.85;99486.59;5027848;28;20060;-75
2021/06/21 04:17:26;;;;;;;3.92;1.33;;;;;;;14.31;84.02;99484.50;5040624;28;20021;-75
2021/06/21 04:19:51;;;;;;;3.78;1.38;;;;;;;14.35;83.98;99484.66;5023392;28;20026;-75
2021/06/21 04:22:17;;;;;;;4.70;1.50;;;;;;;14.33;84.25;99475.78;5039436;28;20459;-75
2021/06/21 04:24:43;;;;;;;5.30;1.45;;;;;;;14.37;83.98;99478.69;5039116;28;20090;-75
2021/06/21 04:27:08;;;;;;;5.43;1.50;;;;;;;14.38;84.38;99480.34;5023566;28;20030;-75
2021/06/21 04:29:34;;;;;;;8.90;1.75;;;;;;;14.41;84.84;99493.63;5023036;28;20026;-75
2021/06/21 04:31:59;;;;;;;3.83;1.45;;;;;;;14.40;85.01;99498.41;5018287;28;20068;-75
2021/06/21 04:34:25;;;;;;;9.85;2.13;;;;;;;14.44;85.08;99504.09;5030142;28;20552;-75
2021/06/21 04:36:50;;;;;;;8.73;2.53;;;;;;;14.46;85.62;99512.97;5038165;28;20032;-75
2021/06/21 04:39:16;;;;;;;6.45;1.63;;;;;;;14.48;85.48;99499.44;5022167;28;20044;-76
2021/06/21 04:41:41;;;;;;;11.10;2.75;;;;;;;14.51;85.67;99504.34;5031804;28;20041;-76
2021/06/21 04:44:07;;;;;;;5.63;2.00;;;;;;;14.55;85.48;99518.50;5033631;28;20037;-76
2021/06/21 04:46:34;;;;;;;5.85;1.85;;;;;;;14.56;85.82;99514.53;5038482;28;20033;-76
2021/06/21 04:49:00;;;;;;;8.20;1.90;;;;;;;14.59;85.71;99522.22;5015413;28;20039;-76
2021/06/21 04:51:25;;;;;;;10.98;2.45;;;;;;;14.61;86.37;99519.91;5021543;28;20077;-75
2021/06/21 04:53:51;;;;;;;8.52;2.42;;;;;;;14.66;86.21;99528.06;5042971;28;20036;-75
2021/06/21 04:56:16;;;;;;;8.10;2.63;;;;;;;14.68;86.34;99534.09;5036615;28;20069;-76
2021/06/21 04:58:42;;;;;;;11.48;2.45;;;;;;;14.71;86.36;99533.44;5027176;28;20105;-76
2021/06/21 05:01:08;;;;;;;9.90;2.17;;;;;;;14.73;86.05;99540.28;5045825;28;20037;-75
2021/06/21 05:03:36;;;;;;;9.18;2.80;;;;;;;14.74;87.04;99544.72;5038912;28;20026;-76
2021/06/21 05:06:04;;;;;;;8.75;2.30;;;;;;;14.78;85.79;99542.06;5024252;28;20041;-76
2021/06/21 05:08:29;;;;;;;6.90;2.15;;;;;;;14.81;86.67;99535.78;5026958;28;20055;-76
2021/06/21 05:10:55;;;;;;;5.30;2.03;;;;;;;14.85;85.99;99525.56;5040869;28;20432;-74
2021/06/21 05:13:20;;;;;;;8.05;2.72;;;;;;;14.87;85.88;99522.38;5004963;28;20544;-75
2021/06/21 05:15:46;;;;;;;7.32;2.42;;;;;;;14.90;85.83;99530.88;5028962;28;20025;-74
2021/06/21 05:18:11;;;;;;;12.30;3.60;;;;;;;14.91;86.84;99529.75;5042294;28;20039;-74
2021/06/21 05:20:37;;;;;;;11.65;2.70;;;;;;;14.98;86.14;99529.16;5024508;28;20044;-74
2021/06/21 05:23:02;;;;;;;8.32;2.80;;;;;;;15.00;86.15;99535.22;5050173;28;20032;-74
2021/06/21 05:25:32;;;;;;;8.73;2.35;;;;;;;15.03;86.51;99520.56;5006683;28;20032;-74
2021/06/21 05:27:58;;;;;;;9.18;2.53;;;;;;;15.07;86.73;99532.69;5012280;28;20093;-74
2021/06/21 05:30:23;;;;;;;10.05;2.45;;;;;;;15.12;87.11;99534.41;5040605;28;20089;-74
2021/06/21 05:32:49;;;;;;;13.15;3.28;;;;;;;15.17;87.91;99534.19;5023865;28;20103;-74
2021/06/21 05:35:15;;;;;;;11.77;2.85;;;;;;;15.25;88.35;99536.06;5044771;28;20053;-74
2021/06/21 05:37:40;;;;;;;11.52;2.70;;;;;;;15.30;87.80;99541.44;5013237;28;20048;-74
2021/06/21 05:40:06;;;;;;;14.02;3.05;;;;;;;15.36;88.35;99544.81;5038744;28;20437;-74
2021/06/21 05:42:32;;;;;;;13.38;3.35;;;;;;;15.42;89.90;99541.41;5049090;28;20106;-74
2021/06/21 05:44:57;;;;;;;11.70;2.90;;;;;;;15.51;88.31;99551.69;5046781;28;20025;-75
2021/06/21 05:47:24;;;;;;;11.27;2.80;;;;;;;15.58;88.53;99547.13;5024921;28;20105;-75
2021/06/21 05:49:50;;;;;;;14.70;2.83;;;;;;;15.68;88.18;99545.84;5032932;28;20040;-75
2021/06/21 05:52:15;;;;;;;11.45;2.90;;;;;;;15.78;87.90;99542.59;5042404;28;20096;-74
2021/06/21 05:54:41;;;;;;;10.45;2.80;;;;;;;15.91;87.36;99542.56;5042460;28;20038;-75
2021/06/21 05:57:06;;;;;;;9.13;2.60;;;;;;;16.05;85.99;99551.41;5044436;28;20049;-74
2021/06/21 05:59:32;;;;;;;13.15;2.75;;;;;;;16.21;85.27;99549.47;5021162;28;20052;-75
2021/06/21 06:01:58;;;;;;;14.52;3.15;;;;;;;16.40;85.33;99548.00;5005975;28;20041;-75
2021/06/21 06:04:23;;;;;;;15.38;2.90;;;;;;;16.59;84.79;99550.97;5030123;28;20037;-75
2021/06/21 06:06:49;;;;;;;11.88;2.03;;;;;;;16.75;84.31;99554.63;5002491;28;20495;-75
2021/06/21 06:09:14;;;;;;;10.35;2.50;;;;;;;16.92;84.23;99553.50;5044235;28;20474;-75
2021/06/21 06:11:40;;;;;;;12.15;2.72;;;;;;;17.07;83.99;99560.28;5042503;28;20129;-75
2021/06/21 06:14:06;;;;;;;13.32;2.55;;;;;;;17.17;83.42;99558.94;5005222;28;20037;-75
2021/06/21 06:16:31;;;;;;;10.10;2.33;;;;;;;17.28;82.50;99559.22;5030770;28;20029;-73
2021/06/21 06:18:57;;;;;;;10.20;2.38;;;;;;;17.35;82.09;99553.78;5026209;28;20026;-77
2021/06/21 06:21:24;;;;;;;10.82;2.50;;;;;;;17.40;82.55;99556.31;5029719;28;20029;-76
2021/06/21 06:23:50;;;;;;;9.13;2.30;;;;;;;17.49;82.12;99561.75;5035338;28;20083;-77
2021/06/21 06:26:15;;;;;;;12.07;1.92;;;;;;;17.53;81.43;99566.28;5025087;28;20029;-77
2021/06/21 06:28:41;;;;;;;13.15;2.03;;;;;;;17.61;81.36;99565.25;5007705;28;20029;-74
2021/06/21 06:31:06;;;;;;;5.78;1.50;;;;;;;17.70;81.03;99567.06;5043117;28;20041;-74
2021/06/21 06:33:32;;;;;;;8.90;2.28;;;;;;;17.81;80.88;99562.53;5040388;28;20025;-74
2021/06/21 06:35:58;;;;;;;7.95;1.83;;;;;;;17.96;80.14;99572.91;5040851;28;20056;-79
2021/06/21 06:38:23;;;;;;;9.15;2.08;;;;;;;18.11;79.51;99571.25;5011388;28;20033;-80
2021/06/21 06:40:49;;;;;;;8.15;2.00;;;;;;;18.30;78.72;99582.53;5023144;28;20076;-81
2021/06/21 06:43:15;;;;;;;9.13;1.67;;;;;;;18.51;78.26;99573.69;5033029;28;20033;-80
2021/06/21 06:45:40;;;;;;;8.35;1.58;;;;;;;18.77;78.12;99586.28;5028057;28;20021;-80
2021/06/21 06:48:06;;;;;;;6.68;1.63;;;;;;;19.05;77.22;99579.59;5025950;28;20470;-81
2021/06/21 06:50:31;;;;;;;8.93;1.98;;;;;;;19.32;76.85;99581.28;5034695;28;20056;-81
2021/06/21 06:52:58;;;;;;;13.65;2.00;;;;;;;19.57;76.21;99597.78;5027241;28;20037;-80
2021/06/21 06:58:08;;;;;;;11.30;2.25;;;;;;;20.07;75.03;99576.88;5026042;28;20089;-81
2021/06/21 07:00:35;;;;;;;6.68;1.48;;;;;;;20.30;74.26;99578.78;5012218;28;20504;-81
2021/06/21 07:03:00;;;;;;;7.93;1.63;;;;;;;20.49;73.98;99587.09;5024059;28;20504;-81
2021/06/21 07:05:26;;;;;;;6.35;1.30;;;;;;;20.64;73.30;99579.63;5005937;28;20033;-81
2021/06/21 07:07:56;;;;;;;8.02;1.42;;;;;;;20.82;72.78;99596.78;5020861;28;20060;-81
2021/06/21 07:10:22;;;;;;;9.23;1.65;;;;;;;20.94;72.41;99590.06;5029002;28;20033;-81
2021/06/21 07:12:47;;;;;;;13.93;1.77;;;;;;;21.02;72.47;99590.97;5023617;28;20045;-81
2021/06/21 07:15:13;;;;;;;8.48;1.40;;;;;;;21.13;71.70;99595.50;5026223;28;20037;-80
2021/06/21 07:17:38;;;;;;;6.70;1.58;;;;;;;21.24;71.72;99597.63;5043180;28;20044;-81
2021/06/21 07:20:04;;;;;;;7.15;1.35;;;;;;;21.35;71.26;99601.38;5027670;28;20034;-80
2021/06/21 07:22:30;;;;;;;8.18;1.80;;;;;;;21.49;70.88;99606.38;5020060;28;20025;-80
2021/06/21 07:24:55;;;;;;;7.03;1.38;;;;;;;21.60;71.12;99604.47;5018001;28;20091;-81
2021/06/21 07:27:21;;;;;;;6.97;1.55;;;;;;;21.71;70.54;99596.06;5024713;28;20030;-80
2021/06/21 07:29:46;;;;;;;6.28;1.45;;;;;;;21.80;70.06;99596.53;5005392;28;20028;-81
2021/06/21 07:32:12;;;;;;;7.95;1.50;;;;;;;21.85;69.93;99599.81;5021750;28;20053;-73
2021/06/21 07:34:38;;;;;;;11.52;1.95;;;;;;;21.91;69.86;99603.06;5043012;28;20476;-73
2021/06/21 07:37:04;;;;;;;10.18;1.58;;;;;;;21.94;69.30;99607.94;5044454;28;20052;-74
2021/06/21 07:39:29;;;;;;;11.63;1.90;;;;;;;21.99;69.32;99615.25;4993209;28;20052;-73
2021/06/21 07:41:55;;;;;;;13.60;2.25;;;;;;;21.97;69.41;99601.50;5009409;28;20041;-73
2021/06/21 07:44:20;;;;;;;7.03;1.40;;;;;;;21.96;69.71;99610.38;5023032;28;20094;-73
2021/06/21 07:46:47;;;;;;;7.63;1.60;;;;;;;21.90;69.08;99614.75;5027822;28;20048;-73
2021/06/21 07:49:13;;;;;;;10.80;1.77;;;;;;;21.83;69.24;99613.50;5026370;28;20065;-73
2021/06/21 07:51:40;;;;;;;10.18;1.83;;;;;;;21.80;69.28;99610.66;5005105;28;20043;-73
2021/06/21 07:54:05;;;;;;;13.10;2.08;;;;;;;21.74;69.71;99598.91;5012635;28;20103;-73
2021/06/21 07:56:31;;;;;;;12.95;1.90;;;;;;;21.71;69.99;99610.19;5039297;28;20041;-73
2021/06/21 07:58:57;;;;;;;9.63;1.70;;;;;;;21.68;70.52;99611.78;4988177;28;20029;-73
2021/06/21 08:01:23;;;;;;;9.40;1.50;;;;;;;21.64;70.48;99608.91;5043299;28;20393;-73
2021/06/21 08:03:48;;;;;;;8.07;1.90;;;;;;;21.68;70.50;99608.16;5010642;28;20351;-73
2021/06/21 08:06:14;;;;;;;8.50;1.98;;;;;;;21.72;70.55;99603.34;4990038;28;20033;-73
2021/06/21 08:08:40;;;;;;;10.15;1.85;;;;;;;21.73;70.75;99608.59;4999643;28;20389;-73
2021/06/21 08:11:06;;;;;;;8.90;1.75;;;;;;;21.81;71.06;99606.63;5033799;28;20090;-73
2021/06/21 08:13:31;;;;;;;6.63;1.77;;;;;;;21.88;70.96;99609.53;5021891;28;20041;-73
2021/06/21 08:15:57;;;;;;;7.53;1.75;;;;;;;21.98;70.95;99605.97;5027376;28;20053;-73
2021/06/21 08:18:22;;;;;;;10.77;2.45;;;;;;;22.03;70.83;99611.22;5015623;28;20080;-73
2021/06/21 08:20:49;;;;;;;9.90;2.17;;;;;;;22.12;70.44;99608.06;5029723;28;20025;-73
2021/06/21 08:23:15;;;;;;;11.02;1.70;;;;;;;22.17;70.12;99607.69;5042463;28;20048;-73
2021/06/21 08:25:41;;;;;;;7.82;1.67;;;;;;;22.24;70.06;99604.94;5021135;28;20464;-73
2021/06/21 08:28:07;;;;;;;9.20;2.10;;;;;;;22.28;69.44;99605.75;5029719;28;20111;-73
2021/06/21 08:30:32;;;;;;;8.68;1.80;;;;;;;22.34;69.80;99606.19;5022741;28;20061;-73
2021/06/21 08:32:58;;;;;;;8.65;1.52;;;;;;;22.38;69.62;99609.88;5030713;28;20025;-73
2021/06/21 08:35:24;;;;;;;9.63;1.80;;;;;;;22.44;69.02;99602.63;5008275;28;20067;-73
2021/06/21 08:37:49;;;;;;;9.98;1.92;;;;;;;22.50;68.71;99601.03;5022377;28;20044;-73
2021/06/21 08:40:15;;;;;;;7.60;1.70;;;;;;;22.60;68.70;99599.47;5029706;28;20034;-73
2021/06/21 08:42:41;;;;;;;7.63;1.77;;;;;;;22.68;68.37;99600.31;5030664;28;20024;-74
2021/06/21 08:45:07;;;;;;;7.30;1.35;;;;;;;22.79;68.14;99601.16;5027139;28;20105;-73
2021/06/21 08:47:33;;;;;;;7.32;1.55;;;;;;;22.93;67.87;99611.72;5021394;28;20026;-73
2021/06/21 08:49:59;;;;;;;9.75;1.65;;;;;;;23.08;67.74;99607.75;5010945;28;20032;-73
2021/06/21 08:52:25;;;;;;;11.13;1.30;;;;;;;23.30;66.41;99619.13;5043602;28;20086;-73
2021/06/21 08:54:52;;;;;;;9.63;1.13;;;;;;;23.50;65.28;99613.88;5037014;28;20033;-73
2021/06/21 08:57:18;;;;;;;6.00;1.05;;;;;;;23.69;65.28;99616.31;5040072;28;20034;-73
2021/06/21 08:59:43;;;;;;;5.28;1.23;;;;;;;23.84;64.40;99612.28;5013244;28;20473;-79
2021/06/21 09:02:14;;;;;;;5.57;1.40;;;;;;;23.99;64.65;99615.13;5023426;28;20511;-81
2021/06/21 09:04:40;;;;;;;6.20;1.10;;;;;;;24.16;63.53;99621.97;5014239;28;20029;-81
2021/06/21 09:07:27;;;;;;;6.55;1.40;;;;;;;24.35;62.11;99615.88;5031706;28;20078;-81
2021/06/21 09:09:54;;;;;;;3.53;0.85;;;;;;;24.57;62.38;99605.25;5052215;28;20044;-81
2021/06/21 09:12:26;;;;;;;5.38;0.73;;;;;;;24.73;61.32;99610.47;5044472;28;20028;-81
2021/06/21 09:14:52;;;;;;;4.20;0.80;;;;;;;24.85;61.19;99618.53;5013475;28;20057;-81
2021/06/21 09:17:22;;;;;;;4.00;0.65;;;;;;;24.93;61.61;99620.13;5037691;28;20037;-81
2021/06/21 09:19:56;;;;;;;3.42;0.63;;;;;;;25.05;59.92;99615.19;5040812;28;20033;-81
2021/06/21 09:22:28;;;;;;;5.97;0.82;;;;;;;25.18;59.49;99622.03;5039071;28;20556;-81
2021/06/21 09:24:55;;;;;;;4.65;0.75;;;;;;;25.24;59.08;99619.56;5046696;28;20065;-81
2021/06/21 09:27:21;;;;;;;5.00;0.80;;;;;;;25.26;58.90;99622.81;5012815;28;20025;-82
2021/06/21 09:29:47;;;;;;;2.70;0.50;;;;;;;25.35;59.24;99625.97;5029944;28;20083;-82
2021/06/21 09:32:13;;;;;;;3.05;0.50;;;;;;;25.40;59.29;99632.03;5011960;28;20104;-81
2021/06/21 09:34:42;;;;;;;3.65;0.93;;;;;;;25.41;59.14;99624.34;5025903;28;20033;-81
2021/06/21 09:37:09;;;;;;;4.25;0.52;;;;;;;25.41;58.95;99627.19;5011437;28;20113;-81
2021/06/21 09:39:41;;;;;;;5.15;0.80;;;;;;;25.42;59.27;99629.59;5001039;28;20034;-79
2021/06/21 09:42:11;;;;;;;3.15;1.20;;;;;;;25.32;58.72;99626.81;5043134;28;20032;-73
2021/06/21 09:44:47;;;;;;;4.55;1.50;;;;;;;25.32;58.41;99623.97;5030851;28;20037;-73
2021/06/21 09:47:24;;;;;;;4.43;0.80;;;;;;;25.24;58.47;99622.41;5037380;28;20112;-71
2021/06/21 09:50:29;;;;;;;4.57;0.80;;;;;;;25.09;58.19;99630.97;5047806;28;20033;-71
2021/06/21 09:52:57;;;;;;;7.15;0.77;;;;;;;25.04;57.91;99633.44;5046505;28;20436;-71
2021/06/21 09:55:26;;;;;;;4.95;0.70;;;;;;;24.96;58.28;99629.81;5026763;28;20056;-70
2021/06/21 09:58:03;;;;;;;5.70;0.70;;;;;;;24.81;57.73;99639.66;5044066;28;20029;-70
2021/06/21 10:00:28;;;;;;;3.10;0.57;;;;;;;24.76;57.70;99635.19;5046223;28;20033;-70
2021/06/21 10:03:08;;;;;;;3.40;0.52;;;;;;;24.66;58.70;99634.03;5025886;28;20033;-70
2021/06/21 10:05:36;;;;;;;3.80;0.77;;;;;;;24.55;59.40;99636.09;5020339;28;20042;-70
2021/06/21 10:08:01;;;;;;;5.55;0.73;;;;;;;24.45;59.40;99645.44;5034194;28;20040;-70
2021/06/21 10:10:27;;;;;;;3.83;0.50;;;;;;;24.46;58.85;99644.22;5039814;28;20091;-70
2021/06/21 10:12:53;;;;;;;4.47;0.57;;;;;;;24.45;59.33;99636.94;5030670;28;20179;-70
2021/06/21 10:15:18;;;;;;;2.15;0.68;;;;;;;24.38;58.72;99643.41;5041493;28;20037;-71
2021/06/21 10:17:44;;;;;;;5.45;0.85;;;;;;;24.35;59.58;99641.41;5046253;28;20381;-71
2021/06/21 10:20:10;;;;;;;2.83;0.50;;;;;;;24.41;59.80;99647.47;5034620;28;20418;-71
2021/06/21 10:22:36;;;;;;;2.85;0.40;;;;;;;24.43;59.04;99645.88;5029868;28;20037;-71
2021/06/21 10:25:02;;;;;;;1.70;0.40;;;;;;;24.60;59.79;99635.69;5034012;28;20026;-71
2021/06/21 10:27:28;;;;;;;2.58;0.60;;;;;;;24.71;59.69;99641.28;5037572;28;20045;-71
2021/06/21 10:29:55;;;;;;;4.15;0.40;;;;;;;24.86;59.34;99637.19;5036467;28;20030;-70
2021/06/21 10:32:21;;;;;;;3.20;0.40;;;;;;;25.03;59.51;99632.66;5039678;28;20041;-70
2021/06/21 10:34:47;;;;;;;1.30;0.30;;;;;;;25.23;58.54;99632.16;5038426;28;20068;-71
2021/06/21 10:37:18;;;;;;;3.40;0.40;;;;;;;25.40;58.17;99639.75;5008199;28;20021;-71
2021/06/21 10:39:48;;;;;;;2.90;0.40;;;;;;;25.57;58.10;99635.97;5025822;28;20028;-71
2021/06/21 10:42:15;;;;;;;3.80;0.50;;;;;;;25.66;56.80;99637.53;5016696;28;20113;-71
2021/06/21 10:44:47;;;;;;;2.10;0.52;;;;;;;25.83;56.90;99645.19;5026345;28;20067;-71
2021/06/21 10:47:26;;;;;;;1.33;0.30;;;;;;;25.96;56.89;99643.41;5041580;28;20486;-74
2021/06/21 10:49:58;;;;;;;3.45;0.47;;;;;;;26.10;57.02;99636.78;5043402;28;20038;-79
2021/06/21 10:52:48;;;;;;;4.07;0.88;;;;;;;26.23;57.00;99628.53;5009047;28;20038;-73
2021/06/21 10:57:49;;;;;;;3.33;0.93;;;;;;;26.38;55.90;99630.00;5037950;28;20500;-74
2021/06/21 11:00:15;;;;;;;2.97;1.00;;;;;;;26.58;54.45;99635.09;5026818;28;20053;-74
2021/06/21 11:02:41;;;;;;;3.50;0.65;;;;;;;26.75;54.20;99628.41;5057596;28;20064;-74
2021/06/21 11:05:07;;;;;;;4.15;0.47;;;;;;;26.92;54.11;99630.19;5017239;28;20033;-74
2021/06/21 11:07:33;;;;;;;2.35;0.50;;;;;;;27.10;54.02;99626.28;5043613;28;20086;-74
2021/06/21 11:09:59;;;;;;;3.63;0.50;;;;;;;27.25;53.81;99638.34;5030954;28;20505;-74
2021/06/21 11:12:30;;;;;;;1.95;0.52;;;;;;;27.37;53.16;99635.69;5023863;28;20505;-74
2021/06/21 11:15:12;;;;;;;2.08;0.47;;;;;;;27.52;51.05;99626.94;5043607;28;20104;-74
2021/06/21 11:17:53;;;;;;;2.83;0.45;;;;;;;27.64;51.42;99632.06;5036608;28;20026;-74
2021/06/21 11:20:40;;;;;;;1.48;0.30;;;;;;;27.77;49.23;99632.22;5051414;28;20518;-74
2021/06/21 11:23:10;;;;;;;2.65;0.32;;;;;;;27.88;50.75;99626.38;5038662;28;20037;-74
2021/06/21 11:25:43;;;;;;;3.40;0.40;;;;;;;28.13;51.51;99631.66;5021057;28;20033;-74
2021/06/21 11:28:47;;;;;;;1.98;0.40;;;;;;;28.41;48.97;99628.25;5043795;28;20037;-74
2021/06/21 11:31:19;;;;;;;1.15;0.22;;;;;;;28.72;49.21;99633.78;5000586;28;20097;-74
2021/06/21 11:33:57;;;;;;;2.87;0.40;;;;;;;28.99;49.27;99630.78;4984160;28;20132;-74
2021/06/21 11:36:34;;;;;;;1.48;0.30;;;;;;;29.29;48.94;99628.94;4965604;28;20066;-74
2021/06/21 11:39:18;;;;;;;3.08;0.47;;;;;;;29.56;46.51;99617.25;5003568;28;20034;-74